Adamsville, Pennsylvania
Current Conditions -  °F | °C
As of 10:09 PM on Saturday 20 Dec 2014 (Local Time) from KGKJ Reporting Station
Overcast Overcast  
Wind Chill: 27°   Ceiling: 2200
Heat Index: 27°   Visibility: 10mi
Dew Point: 21°   Wind: 3mph
Humidity: 78%   Direction: 90°E
Pressure: 30.24"   Gusts: NA
Location:  41.51°N, 80.37°W
Report Text: KGKJ 210309Z AUTO 09003KT 10SM SCT015 OVC022 M03/M06 A3024 RMK AO2 T10281061 TSNO $
Loading
Personal Weather Stations






























Interactive Weather Map New forecast layout! Learn more

10-Day Weather Forecast

Advertisements
Track Severe Weather on mobile